Time;durP1;ratioP1;P1;durP2;ratioP2;P2;SDS_P1;SDS_P2;PMS_P1;PMS_P2;Temp;Humidity;BMP_temperature;BMP_pressure;BME280_temperature;BME280_humidity;BME280_pressure;Samples;Min_cycle;Max_cycle;Signal;HPM_P1;HPM_P2
2023/02/07 05:11:10;;;;;;;;;;;;;;;8.31;100.00;101517.78;5656743;23;19927;-94
2023/02/07 05:13:35;;;;;;;;;;;;;;;8.29;100.00;101526.56;4978762;28;19922;-91
2023/02/07 05:16:01;;;;;;;;;;;;;;;8.25;100.00;101519.53;4979225;28;19918;-88
2023/02/07 05:18:26;;;;;;;;;;;;;;;8.26;100.00;101523.94;4977763;28;20262;-93
2023/02/07 05:20:52;;;;;;;;;;;;;;;8.26;100.00;101529.22;4959949;28;19958;-93
2023/02/07 05:23:17;;;;;;;;;;;;;;;8.28;100.00;101528.34;4977789;28;19922;-90
2023/02/07 05:25:43;;;;;;;;;;;;;;;8.28;100.00;101538.00;4976986;28;20391;-91
2023/02/07 05:28:08;;;;;;;;;;;;;;;8.29;100.00;101540.66;4960294;28;19929;-90
2023/02/07 05:30:33;;;;;;;;;;;;;;;8.28;100.00;101543.28;4977450;28;20366;-89
2023/02/07 05:33:05;;;;;;;;;;;;;;;8.27;100.00;101537.16;4977547;28;19953;-90
2023/02/07 05:35:33;;;;;;;;;;;;;;;8.28;100.00;101543.28;4977253;28;19922;-89
2023/02/07 05:37:58;;;;;;;;;;;;;;;8.27;100.00;101537.16;4960041;28;20300;-90
2023/02/07 05:40:24;;;;;;;;;;;;;;;8.27;100.00;101537.16;4976112;28;19925;-90
2023/02/07 05:42:54;;;;;;;;;;;;;;;8.27;100.00;101541.56;4960120;28;19919;-91
2023/02/07 05:45:22;;;;;;;;;;;;;;;8.27;100.00;101553.00;4959915;28;20345;-90
2023/02/07 05:47:47;;;;;;;;;;;;;;;8.27;100.00;101547.72;4977191;28;20017;-91
2023/02/07 05:50:13;;;;;;;;;;;;;;;8.27;100.00;101552.13;4958842;28;20488;-92
2023/02/07 05:52:38;;;;;;;;;;;;;;;8.26;100.00;101551.22;4977445;28;19918;-89
2023/02/07 05:55:04;;;;;;;;;;;;;;;8.28;100.00;101556.50;4959342;28;20024;-87
2023/02/07 05:57:29;;;;;;;;;;;;;;;8.25;100.00;101551.22;4959867;28;20385;-90
2023/02/07 05:59:55;;;;;;;;;;;;;;;8.26;100.00;101539.78;4959956;28;20270;-91
2023/02/07 06:02:20;;;;;;;;;;;;;;;8.28;100.00;101545.94;4959586;28;19918;-91
2023/02/07 06:04:45;;;;;;;;;;;;;;;8.28;100.00;101540.66;4959664;28;20343;-89
2023/02/07 06:07:10;;;;;;;;;;;;;;;8.27;100.00;101546.84;4959577;28;19918;-91
2023/02/07 06:09:36;;;;;;;;;;;;;;;8.27;100.00;101539.78;4959465;28;19924;-90
2023/02/07 06:12:01;;;;;;;;;;;;;;;8.28;100.00;101549.47;4975655;28;19922;-90
2023/02/07 06:14:26;;;;;;;;;;;;;;;8.27;100.00;101541.56;4976727;28;20013;-92
2023/02/07 06:16:51;;;;;;;;;;;;;;;8.28;100.00;101551.22;4976778;28;19918;-92
2023/02/07 06:19:17;;;;;;;;;;;;;;;8.27;100.00;101549.47;4976824;28;19922;-92
2023/02/07 06:21:42;;;;;;;;;;;;;;;8.27;100.00;101549.47;4976621;28;20013;-90
2023/02/07 06:24:07;;;;;;;;;;;;;;;8.27;100.00;101553.00;4959306;28;19922;-91
2023/02/07 06:26:33;;;;;;;;;;;;;;;8.26;100.00;101553.88;4975580;28;19918;-91
2023/02/07 06:28:58;;;;;;;;;;;;;;;8.27;100.00;101552.13;4976610;28;19918;-91
2023/02/07 06:31:24;;;;;;;;;;;;;;;8.27;100.00;101553.00;4959234;28;20290;-91
2023/02/07 06:33:49;;;;;;;;;;;;;;;8.26;100.00;101560.91;4976358;28;19918;-91
2023/02/07 06:36:14;;;;;;;;;;;;;;;8.26;100.00;101555.63;4976398;28;19965;-91
2023/02/07 06:38:40;;;;;;;;;;;;;;;8.26;100.00;101566.19;4958885;28;19918;-90
2023/02/07 06:41:09;;;;;;;;;;;;;;;8.26;100.00;101551.22;4975110;28;19918;-91
2023/02/07 06:43:35;;;;;;;;;;;;;;;8.26;100.00;101558.28;4959013;28;19918;-91
2023/02/07 06:46:00;;;;;;;;;;;;;;;8.26;100.00;101561.78;4958936;28;19946;-90
2023/02/07 06:48:25;;;;;;;;;;;;;;;8.26;100.00;101571.47;4958831;28;20333;-90
2023/02/07 06:50:50;;;;;;;;;;;;;;;8.25;100.00;101564.44;4976135;28;19918;-91
2023/02/07 06:53:16;;;;;;;;;;;;;;;8.26;100.00;101568.84;4976335;28;19924;-89
2023/02/07 06:55:41;;;;;;;;;;;;;;;8.27;100.00;101568.84;4974703;28;19918;-90
2023/02/07 06:58:07;;;;;;;;;;;;;;;8.25;100.00;101567.06;4958734;28;19918;-91
2023/02/07 07:00:32;;;;;;;;;;;;;;;8.26;100.00;101571.47;4975862;28;20362;-89
2023/02/07 07:02:59;;;;;;;;;;;;;;;8.25;100.00;101573.25;4975518;28;19922;-88
2023/02/07 07:05:24;;;;;;;;;;;;;;;8.25;100.00;101575.91;4975885;28;19961;-90
2023/02/07 07:07:50;;;;;;;;;;;;;;;8.25;100.00;101575.00;4975816;28;20052;-90
2023/02/07 08:56:58;;;;;;;;;;;;;;;8.38;100.00;101663.88;4952327;29;20376;-83
2023/02/07 09:03:43;;;;;;;;;;;;;;;8.24;100.00;101669.19;4935186;29;20933;-88
2023/02/07 09:09:48;;;;;;;;;;;;;;;;;;;;;
2023/02/07 09:15:20;;;;;;;;;;;;;;;8.24;100.00;101681.53;4914288;29;19967;-83
2023/02/07 09:17:45;;;;;;;;;;;;;;;7.97;100.00;101672.81;4947424;28;19922;-84
2023/02/07 09:24:07;;;;;;;;;;;;;;;;;;;;;
2023/02/07 09:33:15;;;;;;;;;;;;;;;;;;;;;
2023/02/07 09:46:11;;;;;;;;;;;;;;;8.21;100.00;101671.00;4789132;29;20117;-92
2023/02/07 10:18:12;;;;;;;;;;;;;;;;;;;;;
2023/02/07 10:26:48;;;;;;;;;;;;;;;8.22;100.00;101662.16;4311596;26;19926;-93
2023/02/07 10:29:30;;;;;;;;;;;;;;;7.59;98.81;101668.44;4959611;28;19922;-88
2023/02/07 10:32:10;;;;;;;;;;;;;;;;;;;;;
2023/02/07 10:34:43;;;;;;;;;;;;;;;8.08;100.00;101668.38;4970471;28;19928;-88
2023/02/07 10:37:29;;;;;;;;;;;;;;;8.13;100.00;101658.66;4952826;28;19922;-88
2023/02/07 10:40:30;;;;;;;;;;;;;;;;;;;;;
2023/02/07 10:43:03;;;;;;;;;;;;;;;8.17;100.00;101657.78;4938412;29;19915;-88
2023/02/07 10:45:38;;;;;;;;;;;;;;;8.15;100.00;101648.09;4972628;28;20029;-88
2023/02/07 10:49:13;;;;;;;;;;;;;;;8.17;100.00;101644.59;4974988;28;19918;-88
2023/02/07 10:51:28;;;;;;;;;;;;;;;8.18;100.00;101642.81;4956105;28;19922;-89
2023/02/07 10:54:08;;;;;;;;;;;;;;;8.21;100.00;101652.50;4962431;28;19922;-84
2023/02/07 10:56:54;;;;;;;;;;;;;;;8.20;100.00;101656.91;4956433;28;19922;-86
2023/02/07 10:59:55;;;;;;;;;;;;;;;8.21;100.00;101650.72;4971366;28;20009;-88
2023/02/07 11:03:02;;;;;;;;;;;;;;;;;;;;;
2023/02/07 11:06:02;;;;;;;;;;;;;;;8.22;100.00;101638.38;4947138;28;19925;-88
2023/02/07 11:14:27;;;;;;;;;;;;;;;8.22;100.00;101638.38;4945786;28;19923;-85
2023/02/07 11:17:00;;;;;;;;;;;;;;;8.21;100.00;101640.16;4975420;28;19946;-85
2023/02/07 11:19:26;;;;;;;;;;;;;;;8.23;100.00;101635.75;4975409;28;19929;-83
2023/02/07 11:22:08;;;;;;;;;;;;;;;8.23;100.00;101634.88;4958080;28;20297;-84
2023/02/07 11:24:59;;;;;;;;;;;;;;;8.23;100.00;101634.88;4956598;28;19980;-87
2023/02/07 11:27:25;;;;;;;;;;;;;;;8.18;100.00;101635.78;4973464;28;19933;-87
2023/02/07 11:30:20;;;;;;;;;;;;;;;8.21;100.00;101637.53;4974569;28;19926;-85
2023/02/07 11:33:30;;;;;;;;;;;;;;;8.21;100.00;101623.44;4959709;28;19922;-90
2023/02/07 11:36:14;;;;;;;;;;;;;;;8.19;100.00;101619.03;4970509;28;19922;-83
2023/02/07 11:39:05;;;;;;;;;;;;;;;8.18;100.00;101619.94;4974055;28;20017;-85
2023/02/07 11:41:56;;;;;;;;;;;;;;;8.19;100.00;101612.91;4936721;29;19926;-87
2023/02/07 11:44:24;;;;;;;;;;;;;;;8.19;100.00;101608.47;4963870;28;20021;-82
2023/02/07 11:46:49;;;;;;;;;;;;;;;8.19;100.00;101604.97;4974916;28;19919;-85
2023/02/07 11:49:23;;;;;;;;;;;;;;;8.18;100.00;101596.19;4968582;28;20013;-85
2023/02/07 11:51:58;;;;;;;;;;;;;;;8.19;100.00;101600.56;4952891;28;19927;-90
2023/02/07 11:54:29;;;;;;;;;;;;;;;8.22;100.00;101585.56;4966370;28;19987;-86
2023/02/07 11:57:06;;;;;;;;;;;;;;;8.23;100.00;101587.34;4938655;29;20362;-86
2023/02/07 11:59:47;;;;;;;;;;;;;;;8.22;100.00;101585.56;4967781;28;19977;-86
2023/02/07 12:02:19;;;;;;;;;;;;;;;8.21;100.00;101589.13;4957492;28;19922;-86
2023/02/07 12:04:48;;;;;;;;;;;;;;;8.23;100.00;101593.50;4956338;28;19973;-85
2023/02/07 12:07:16;;;;;;;;;;;;;;;8.22;100.00;101586.47;4974751;28;19970;-85
2023/02/07 12:09:50;;;;;;;;;;;;;;;8.19;100.00;101582.06;4973370;28;19918;-85
2023/02/07 12:12:38;;;;;;;;;;;;;;;8.21;100.00;101591.75;4955926;28;19922;-88
2023/02/07 12:15:19;;;;;;;;;;;;;;;8.19;100.00;101581.19;4955431;28;20388;-86
2023/02/07 12:17:56;;;;;;;;;;;;;;;8.23;100.00;101587.34;4955641;28;19954;-85
2023/02/07 12:20:24;;;;;;;;;;;;;;;8.21;100.00;101579.44;4972602;28;19922;-89
2023/02/07 12:23:03;;;;;;;;;;;;;;;8.23;100.00;101582.06;4973506;28;19988;-85
2023/02/07 12:25:57;;;;;;;;;;;;;;;8.23;100.00;101587.34;4973528;28;20053;-85
2023/02/07 12:28:29;;;;;;;;;;;;;;;8.24;100.00;101584.69;4970732;28;20286;-86
2023/02/07 12:31:01;;;;;;;;;;;;;;;8.23;100.00;101592.63;4972795;28;19969;-85
2023/02/07 12:33:36;;;;;;;;;;;;;;;8.17;100.00;101589.13;4952281;28;19922;-85
2023/02/07 12:36:05;;;;;;;;;;;;;;;8.17;100.00;101593.53;4969032;28;19926;-85
2023/02/07 12:38:45;;;;;;;;;;;;;;;8.18;100.00;101601.47;4954439;28;19918;-86
2023/02/07 12:44:29;;;;;;;;;;;;;;;8.16;100.00;101592.66;4972992;28;19929;-86
2023/02/07 12:47:00;;;;;;;;;;;;;;;8.17;100.00;101593.53;4973983;28;20262;-89
2023/02/07 12:49:31;;;;;;;;;;;;;;;8.18;100.00;101603.19;4973544;28;19949;-86
2023/02/07 12:52:27;;;;;;;;;;;;;;;8.19;100.00;101603.19;4966134;28;19926;-89
2023/02/07 12:55:28;;;;;;;;;;;;;;;8.18;100.00;101595.28;4963490;28;20445;-85
2023/02/07 12:58:10;;;;;;;;;;;;;;;8.17;100.00;101599.69;4866749;29;19931;-85
2023/02/07 13:00:38;;;;;;;;;;;;;;;8.18;100.00;101598.81;4951719;28;19925;-84
2023/02/07 13:03:13;;;;;;;;;;;;;;;8.18;100.00;101601.47;4976444;28;19925;-85
2023/02/07 13:06:01;;;;;;;;;;;;;;;8.21;100.00;101591.75;4956878;29;19927;-85
2023/02/07 13:08:35;;;;;;;;;;;;;;;8.22;100.00;101590.84;4993456;28;19920;-86
2023/02/07 13:11:19;;;;;;;;;;;;;;;8.21;100.00;101591.75;4995991;28;19918;-87
2023/02/07 13:13:44;;;;;;;;;;;;;;;8.21;100.00;101584.72;4979516;28;19948;-86
2023/02/07 13:16:15;;;;;;;;;;;;;;;8.20;100.00;101577.69;4976609;28;19930;-85
2023/02/07 13:18:45;;;;;;;;;;;;;;;8.22;100.00;101573.28;4975892;28;19926;-85
2023/02/07 13:21:37;;;;;;;;;;;;;;;8.22;100.00;101580.28;4977054;28;19941;-85
2023/02/07 13:24:08;;;;;;;;;;;;;;;8.19;100.00;101575.91;4991755;28;20020;-85
2023/02/07 13:26:34;;;;;;;;;;;;;;;8.17;100.00;101578.56;4996395;28;19932;-85
2023/02/07 13:29:05;;;;;;;;;;;;;;;8.19;100.00;101579.44;4979542;28;19923;-84
2023/02/07 13:31:57;;;;;;;;;;;;;;;8.22;100.00;101580.28;4954769;28;19930;-85
2023/02/07 13:34:43;;;;;;;;;;;;;;;8.21;100.00;101574.16;4985437;28;20001;-85
2023/02/07 13:37:15;;;;;;;;;;;;;;;8.19;100.00;101574.16;4958106;28;20424;-85
2023/02/07 13:39:45;;;;;;;;;;;;;;;8.23;100.00;101579.41;4974938;28;19923;-87
2023/02/07 13:42:27;;;;;;;;;;;;;;;8.24;100.00;101581.19;4981545;28;19918;-85
2023/02/07 13:44:52;;;;;;;;;;;;;;;8.23;100.00;101568.84;4978799;28;19918;-85
2023/02/07 13:47:30;;;;;;;;;;;;;;;8.23;100.00;101577.66;4973918;28;19923;-85
2023/02/07 13:50:08;;;;;;;;;;;;;;;8.21;100.00;101576.78;4976769;28;19933;-86
2023/02/07 13:52:54;;;;;;;;;;;;;;;8.21;100.00;101568.88;4961704;28;20278;-86
2023/02/07 13:55:36;;;;;;;;;;;;;;;;;;;;;
2023/02/07 14:01:30;;;;;;;;;;;;;;;8.22;100.00;101564.44;4974825;28;19929;-85
2023/02/07 14:04:01;;;;;;;;;;;;;;;8.24;100.00;101571.50;4955208;28;19930;-86
2023/02/07 14:06:28;;;;;;;;;;;;;;;8.26;100.00;101561.78;4976674;28;19934;-83
2023/02/07 14:08:58;;;;;;;;;;;;;;;8.25;100.00;101572.34;4975017;28;20004;-84
2023/02/07 14:11:35;;;;;;;;;;;;;;;8.24;100.00;101562.69;4974077;28;20301;-85
2023/02/07 14:14:24;;;;;;;;;;;;;;;8.25;100.00;101569.72;4957082;29;19926;-85
2023/02/07 14:16:51;;;;;;;;;;;;;;;8.26;100.00;101568.84;4956659;29;20025;-85
2023/02/07 14:19:44;;;;;;;;;;;;;;;8.24;100.00;101567.97;4960581;28;20443;-84
2023/02/07 14:22:21;;;;;;;;;;;;;;;8.23;100.00;101577.66;4969429;28;19925;-84
2023/02/07 14:24:48;;;;;;;;;;;;;;;8.24;100.00;101570.63;4991632;28;20024;-85
2023/02/07 14:27:32;;;;;;;;;;;;;;;8.25;100.00;101564.44;4975883;28;20021;-85
2023/02/07 14:30:16;;;;;;;;;;;;;;;8.26;100.00;101571.47;4974652;28;20432;-84
2023/02/07 14:33:14;;;;;;;;;;;;;;;8.26;100.00;101563.56;4977354;28;19918;-84
2023/02/07 14:36:00;;;;;;;;;;;;;;;8.26;100.00;101560.91;4936364;28;19933;-84
2023/02/07 14:38:39;;;;;;;;;;;;;;;8.24;100.00;101566.22;4973568;28;19926;-84
2023/02/07 14:41:12;;;;;;;;;;;;;;;8.27;100.00;101562.69;4973569;28;20388;-85
2023/02/07 14:43:47;;;;;;;;;;;;;;;8.21;100.00;101563.59;4972155;28;19929;-89
2023/02/07 14:46:33;;;;;;;;;;;;;;;8.23;100.00;101559.16;4952978;28;19929;-86
2023/02/07 14:49:04;;;;;;;;;;;;;;;8.25;100.00;101551.22;4952444;28;19922;-84
2023/02/07 14:51:36;;;;;;;;;;;;;;;8.24;100.00;101560.06;4944695;28;20013;-85
2023/02/07 14:54:23;;;;;;;;;;;;;;;8.25;100.00;101559.16;4969272;28;19985;-82
2023/02/07 14:56:51;;;;;;;;;;;;;;;8.23;100.00;101560.94;4947894;28;19932;-84
2023/02/07 14:59:27;;;;;;;;;;;;;;;8.23;100.00;101561.81;4973772;28;19928;-84
2023/02/07 15:01:54;;;;;;;;;;;;;;;8.24;100.00;101562.69;4975450;28;20034;-84
2023/02/07 15:04:20;;;;;;;;;;;;;;;8.25;100.00;101560.06;4975424;28;20001;-85
2023/02/07 15:06:46;;;;;;;;;;;;;;;8.25;100.00;101565.34;4981704;28;20012;-85
2023/02/07 15:09:23;;;;;;;;;;;;;;;8.25;100.00;101556.50;4993538;28;19918;-83
2023/02/07 15:11:54;;;;;;;;;;;;;;;8.25;100.00;101564.44;4963005;28;20350;-85
2023/02/07 15:14:21;;;;;;;;;;;;;;;8.28;100.00;101553.84;4977637;28;19917;-84
2023/02/07 15:16:54;;;;;;;;;;;;;;;8.27;100.00;101552.13;4973741;28;20313;-86
2023/02/07 15:19:26;;;;;;;;;;;;;;;8.28;100.00;101561.78;4967013;28;19925;-87
2023/02/07 15:21:51;;;;;;;;;;;;;;;8.27;100.00;101565.31;4972787;28;20600;-84
2023/02/07 15:24:19;;;;;;;;;;;;;;;8.27;100.00;101560.03;4966839;28;19922;-83
2023/02/07 15:26:48;;;;;;;;;;;;;;;8.32;100.00;101559.13;4955982;29;20017;-81
2023/02/07 15:29:18;;;;;;;;;;;;;;;8.30;100.00;101566.19;4965010;28;19922;-83
2023/02/07 15:31:44;;;;;;;;;;;;;;;8.29;100.00;101564.41;4956906;28;19973;-84
2023/02/07 15:34:34;;;;;;;;;;;;;;;;;;;;;
2023/02/07 15:37:11;;;;;;;;;;;;;;;8.32;100.00;101563.53;4966497;28;19933;-84
2023/02/07 15:39:38;;;;;;;;;;;;;;;8.34;100.00;101564.41;4964177;28;19918;-85
2023/02/07 15:42:04;;;;;;;;;;;;;;;8.31;100.00;101574.97;4950047;28;19918;-86
2023/02/07 15:44:45;;;;;;;;;;;;;;;;;;;;;
2023/02/07 15:47:40;;;;;;;;;;;;;;;;;;;;;
2023/02/07 15:50:19;;;;;;;;;;;;;;;8.30;100.00;101579.38;4970817;28;19918;-86
2023/02/07 15:52:54;;;;;;;;;;;;;;;8.28;100.00;101586.44;4968909;28;19982;-87
2023/02/07 15:55:45;;;;;;;;;;;;;;;;;;;;;
2023/02/07 15:58:28;;;;;;;;;;;;;;;8.27;100.00;101584.69;4972458;28;20316;-85
2023/02/07 16:01:04;;;;;;;;;;;;;;;8.27;100.00;101589.09;4962104;28;20276;-86
2023/02/07 16:03:33;;;;;;;;;;;;;;;8.31;100.00;101590.81;4972849;28;19918;-85
2023/02/07 16:06:09;;;;;;;;;;;;;;;8.30;100.00;101600.50;4974619;28;19926;-85
2023/02/07 16:08:49;;;;;;;;;;;;;;;8.30;100.00;101599.66;4972734;28;19969;-85
2023/02/07 16:11:32;;;;;;;;;;;;;;;8.28;100.00;101606.69;4963861;28;19923;-86
2023/02/07 16:14:16;;;;;;;;;;;;;;;8.28;100.00;101607.56;4954277;28;20419;-86
2023/02/07 16:17:09;;;;;;;;;;;;;;;8.28;100.00;101618.16;4983984;28;19929;-89
2023/02/07 16:19:33;;;;;;;;;;;;;;;8.29;100.00;101613.72;4957244;28;20068;-85
2023/02/07 16:22:06;;;;;;;;;;;;;;;8.25;100.00;101620.78;4955873;28;20001;-85
2023/02/07 16:24:35;;;;;;;;;;;;;;;8.25;100.00;101622.53;4967767;28;20353;-87
2023/02/07 16:27:03;;;;;;;;;;;;;;;8.27;100.00;101631.34;4989687;28;19925;-86
2023/02/07 16:29:29;;;;;;;;;;;;;;;8.27;100.00;101631.34;4970494;28;19922;-84
2023/02/07 16:31:54;;;;;;;;;;;;;;;8.26;100.00;101634.88;4974328;28;19925;-87
2023/02/07 16:34:24;;;;;;;;;;;;;;;8.25;100.00;101638.38;4979044;28;20005;-87
2023/02/07 16:37:09;;;;;;;;;;;;;;;8.25;100.00;101638.38;4980058;28;19922;-86
2023/02/07 16:39:46;;;;;;;;;;;;;;;8.24;100.00;101636.66;4955726;28;19922;-85
2023/02/07 16:42:18;;;;;;;;;;;;;;;8.24;100.00;101639.28;4972402;28;19926;-85
2023/02/07 16:44:50;;;;;;;;;;;;;;;8.24;100.00;101641.94;4983905;28;19918;-86
2023/02/07 16:47:23;;;;;;;;;;;;;;;8.24;100.00;101647.22;4975723;28;19918;-86
2023/02/07 16:49:58;;;;;;;;;;;;;;;8.22;100.00;101641.03;4973959;28;19918;-87
2023/02/07 16:52:32;;;;;;;;;;;;;;;8.22;100.00;101639.28;4974354;28;19922;-87
2023/02/07 16:54:58;;;;;;;;;;;;;;;8.21;100.00;101644.56;4972796;28;19921;-85
2023/02/07 16:57:23;;;;;;;;;;;;;;;8.22;100.00;101651.59;4973891;28;19919;-85
2023/02/07 17:00:07;;;;;;;;;;;;;;;8.21;100.00;101653.38;4961537;28;19927;-85
2023/02/07 17:02:49;;;;;;;;;;;;;;;8.20;100.00;101651.63;4962961;28;20301;-87
2023/02/07 17:06:07;;;;;;;;;;;;;;;8.18;100.00;101656.91;4956539;28;20009;-87
2023/02/07 17:08:08;;;;;;;;;;;;;;;8.17;100.00;101663.06;4962473;28;19922;-87
2023/02/07 17:16:47;;;;;;;;;;;;;;;8.18;100.00;101661.28;4839603;29;20000;-86
2023/02/07 17:19:16;;;;;;;;;;;;;;;8.19;100.00;101663.06;4882744;29;20405;-85
2023/02/07 17:21:42;;;;;;;;;;;;;;;8.18;100.00;101658.66;4941477;28;19922;-85
2023/02/07 17:24:19;;;;;;;;;;;;;;;8.17;100.00;101667.47;4955503;28;19925;-92
2023/02/07 17:26:47;;;;;;;;;;;;;;;8.15;100.00;101675.41;4953428;29;20358;-87
2023/02/07 17:29:35;;;;;;;;;;;;;;;8.17;100.00;101663.06;4980947;23;20488;-91
2023/02/07 17:32:12;;;;;;;;;;;;;;;8.18;100.00;101674.50;4926653;29;19922;-93
2023/02/07 17:35:14;;;;;;;;;;;;;;;;;;;;;
2023/02/07 17:37:53;;;;;;;;;;;;;;;8.22;100.00;101681.53;4953668;29;19925;-88
2023/02/07 17:40:51;;;;;;;;;;;;;;;8.19;100.00;101679.78;4936953;29;19919;-88
2023/02/07 17:43:29;;;;;;;;;;;;;;;;;;;;;
2023/02/07 17:46:00;;;;;;;;;;;;;;;8.28;100.00;101691.19;4955207;28;19919;-86
2023/02/07 17:48:49;;;;;;;;;;;;;;;8.18;100.00;101690.34;4957800;29;20266;-88
2023/02/07 17:53:46;;;;;;;;;;;;;;;8.15;100.00;101671.88;4992402;23;19957;-84
2023/02/07 17:56:19;;;;;;;;;;;;;;;8.16;100.00;101676.28;4959336;28;19953;-87
2023/02/07 17:58:44;;;;;;;;;;;;;;;8.16;100.00;101684.19;4977749;28;19922;-87
2023/02/07 18:01:10;;;;;;;;;;;;;;;8.15;100.00;101688.63;4984842;28;19918;-87
2023/02/07 18:03:35;;;;;;;;;;;;;;;8.16;100.00;101690.34;4983207;28;19925;-87
2023/02/07 18:06:05;;;;;;;;;;;;;;;8.15;100.00;101695.63;4996085;28;20285;-87
2023/02/07 18:08:33;;;;;;;;;;;;;;;8.16;100.00;101687.72;4988794;28;20009;-87
2023/02/07 18:11:03;;;;;;;;;;;;;;;8.15;100.00;101683.34;4994007;28;20575;-86
2023/02/07 18:13:28;;;;;;;;;;;;;;;8.15;100.00;101690.34;4977318;28;19922;-84
2023/02/07 18:15:53;;;;;;;;;;;;;;;8.15;100.00;101693.91;4989910;28;19972;-85
2023/02/07 18:18:18;;;;;;;;;;;;;;;8.14;100.00;101689.47;4983083;28;19938;-86
2023/02/07 18:20:44;;;;;;;;;;;;;;;8.15;100.00;101700.91;4985630;28;19951;-85
2023/02/07 18:23:12;;;;;;;;;;;;;;;8.14;100.00;101704.47;4984082;28;19932;-86
2023/02/07 18:25:37;;;;;;;;;;;;;;;8.12;100.00;101696.53;4988552;28;19948;-85
2023/02/07 18:28:10;;;;;;;;;;;;;;;8.13;100.00;101708.84;4967339;28;19981;-85
2023/02/07 18:30:40;;;;;;;;;;;;;;;8.13;100.00;101703.56;4975217;28;19945;-85
2023/02/07 18:33:28;;;;;;;;;;;;;;;8.12;100.00;101703.56;4958681;28;19926;-86
2023/02/07 18:35:58;;;;;;;;;;;;;;;8.13;100.00;101708.84;4976124;28;19922;-86
2023/02/07 18:38:24;;;;;;;;;;;;;;;8.13;100.00;101697.41;4957619;28;19922;-86
2023/02/07 18:40:52;;;;;;;;;;;;;;;8.15;100.00;101704.47;4976219;28;20061;-87
2023/02/07 18:43:20;;;;;;;;;;;;;;;8.15;100.00;101703.56;4976106;28;19930;-87
2023/02/07 18:45:45;;;;;;;;;;;;;;;8.14;100.00;101707.97;4994600;28;19918;-86
2023/02/07 18:48:15;;;;;;;;;;;;;;;8.14;100.00;101700.03;4990745;28;19929;-86
2023/02/07 18:50:42;;;;;;;;;;;;;;;8.14;100.00;101701.81;4975566;28;19922;-87
2023/02/07 18:53:11;;;;;;;;;;;;;;;8.14;100.00;101704.47;4957271;28;19922;-89
2023/02/07 18:55:37;;;;;;;;;;;;;;;8.12;100.00;101696.53;4958702;28;19919;-87
2023/02/07 18:58:02;;;;;;;;;;;;;;;8.13;100.00;101698.28;4975060;28;19924;-86
2023/02/07 19:00:28;;;;;;;;;;;;;;;8.13;100.00;101695.63;4959538;28;19972;-87
2023/02/07 19:02:53;;;;;;;;;;;;;;;8.33;100.00;101702.66;4977694;28;19975;-92
2023/02/07 19:05:19;;;;;;;;;;;;;;;8.24;100.00;101700.03;4984083;28;19918;-89
2023/02/07 19:07:45;;;;;;;;;;;;;;;8.19;100.00;101690.34;4974792;28;19918;-88
2023/02/07 19:10:15;;;;;;;;;;;;;;;8.20;100.00;101693.88;4979074;28;19918;-88
2023/02/07 19:13:10;;;;;;;;;;;;;;;8.21;100.00;101684.19;4977827;28;19918;-88
2023/02/07 19:15:43;;;;;;;;;;;;;;;8.22;100.00;101688.56;4994996;28;20008;-89
2023/02/07 19:18:08;;;;;;;;;;;;;;;8.23;100.00;101692.97;4990503;28;19918;-86
2023/02/07 19:20:34;;;;;;;;;;;;;;;8.25;100.00;101693.84;4975576;28;20000;-88
2023/02/07 19:22:59;;;;;;;;;;;;;;;8.26;100.00;101692.97;4974841;28;19918;-90
2023/02/07 19:28:39;;;;;;;;;;;;;;;8.29;100.00;101690.31;4902932;28;19923;-87
2023/02/07 19:31:06;;;;;;;;;;;;;;;8.29;100.00;101688.53;4975335;28;20388;-90
2023/02/07 19:36:50;;;;;;;;;;;;;;;8.29;100.00;101691.19;4974686;28;19972;-89
2023/02/07 19:39:54;;;;;;;;;;;;;;;8.29;100.00;101687.69;4975080;28;19918;-90
2023/02/07 19:42:20;;;;;;;;;;;;;;;8.29;100.00;101685.03;4955265;28;19921;-90
2023/02/07 19:44:47;;;;;;;;;;;;;;;8.28;100.00;101685.91;4977234;28;20301;-86
2023/02/07 19:47:12;;;;;;;;;;;;;;;8.26;100.00;101688.56;4974993;28;19957;-88
2023/02/07 19:49:37;;;;;;;;;;;;;;;8.22;100.00;101683.28;4966097;28;20341;-90
2023/02/07 19:52:25;;;;;;;;;;;;;;;8.18;100.00;101691.25;4990020;28;19929;-88
2023/02/07 19:55:03;;;;;;;;;;;;;;;8.17;100.00;101689.47;4975764;28;19918;-88
2023/02/07 19:57:40;;;;;;;;;;;;;;;;;;;;;
2023/02/07 20:00:08;;;;;;;;;;;;;;;8.08;100.00;101676.28;4994297;28;19924;-88
2023/02/07 20:03:03;;;;;;;;;;;;;;;8.04;100.00;101677.19;4994145;28;19922;-89
2023/02/07 20:05:30;;;;;;;;;;;;;;;8.01;100.00;101679.84;4993378;28;19918;-87
2023/02/07 20:07:56;;;;;;;;;;;;;;;7.99;100.00;101678.94;4993171;28;19918;-89
2023/02/07 20:10:22;;;;;;;;;;;;;;;7.94;100.00;101680.72;4975682;28;19929;-90
2023/02/07 20:12:50;;;;;;;;;;;;;;;7.89;100.00;101685.13;4994174;28;19922;-87
2023/02/07 20:15:16;;;;;;;;;;;;;;;7.85;100.00;101678.09;4976332;28;20008;-87
2023/02/07 20:17:48;;;;;;;;;;;;;;;7.78;100.00;101680.72;4993808;28;20017;-89
2023/02/07 20:20:14;;;;;;;;;;;;;;;7.70;100.00;101674.59;4993683;28;19922;-84
2023/02/07 20:22:57;;;;;;;;;;;;;;;7.64;100.00;101666.69;5009303;23;19932;-87
2023/02/07 20:26:05;;;;;;;;;;;;;;;7.59;100.00;101665.81;4978314;28;19922;-90
2023/02/07 20:28:44;;;;;;;;;;;;;;;;;;;;;
2023/02/07 20:40:55;;;;;;;;;;;;;;;7.22;100.00;101677.22;4877648;29;20454;-90
2023/02/07 20:48:18;;;;;;;;;;;;;;;;;;;;;
2023/02/07 20:53:31;;;;;;;;;;;;;;;7.00;100.00;101689.50;4848781;29;20015;-93
2023/02/07 21:02:38;;;;;;;;;;;;;;;;;;;;;
2023/02/07 21:27:53;;;;;;;;;;;;;;;7.24;100.00;101698.31;4844554;29;19921;-90
2023/02/07 21:40:10;;;;;;;;;;;;;;;7.43;100.00;101689.53;4768495;30;19926;-89
2023/02/07 21:45:58;;;;;;;;;;;;;;;;;;;;;
2023/02/07 21:48:53;;;;;;;;;;;;;;;7.57;100.00;101681.63;4889024;29;19923;-89
2023/02/07 21:54:12;;;;;;;;;;;;;;;7.64;100.00;101671.94;5018057;23;20024;-89
2023/02/07 21:56:50;;;;;;;;;;;;;;;7.62;100.00;101664.03;4995151;28;19921;-89
2023/02/07 21:59:36;;;;;;;;;;;;;;;;;;;;;
2023/02/07 22:02:04;;;;;;;;;;;;;;;7.67;100.00;101663.16;4996444;28;20284;-84
2023/02/07 22:04:40;;;;;;;;;;;;;;;7.70;100.00;101660.53;4996183;28;20036;-86
2023/02/07 22:10:18;;;;;;;;;;;;;;;7.71;100.00;101668.44;4983711;28;20364;-87
2023/02/07 22:12:47;;;;;;;;;;;;;;;7.73;100.00;101665.81;5006103;28;19936;-87
2023/02/07 22:15:15;;;;;;;;;;;;;;;7.72;100.00;101659.66;4996324;28;19922;-88
2023/02/07 22:17:50;;;;;;;;;;;;;;;;;;;;;
2023/02/07 22:20:43;;;;;;;;;;;;;;;7.74;100.00;101657.88;4996015;28;19922;-87
2023/02/07 22:23:35;;;;;;;;;;;;;;;;;;;;;
2023/02/07 22:26:01;;;;;;;;;;;;;;;7.78;100.00;101651.69;4995555;28;19924;-88
2023/02/07 22:28:26;;;;;;;;;;;;;;;7.80;100.00;101652.59;4986503;28;20016;-85
2023/02/07 22:30:54;;;;;;;;;;;;;;;7.80;100.00;101647.31;4984788;28;19969;-83
2023/02/07 22:33:21;;;;;;;;;;;;;;;7.80;100.00;101642.03;4982756;28;20373;-85
2023/02/07 22:35:49;;;;;;;;;;;;;;;7.80;100.00;101642.03;4979904;28;19932;-87
2023/02/07 22:38:23;;;;;;;;;;;;;;;7.82;100.00;101637.63;4994373;28;20128;-86
2023/02/07 22:40:50;;;;;;;;;;;;;;;7.82;100.00;101636.75;4995421;28;20072;-86
2023/02/07 22:43:26;;;;;;;;;;;;;;;7.81;100.00;101638.50;4995588;28;19931;-85
2023/02/07 22:45:53;;;;;;;;;;;;;;;7.81;100.00;101633.22;4995693;28;19921;-85
2023/02/07 22:48:18;;;;;;;;;;;;;;;7.84;100.00;101626.22;4994306;28;20331;-86
2023/02/07 22:50:51;;;;;;;;;;;;;;;7.84;100.00;101632.34;4995517;28;19925;-86
2023/02/07 22:53:17;;;;;;;;;;;;;;;7.84;100.00;101631.50;4994305;28;19933;-86
